Terminal Aerodrome Forecast
Issued by NWS

Home | Current Version | Previous Version | Graphics & Text | Print | Product List | Glossary On
Versions: 1 2 3 4 5 6 7 8 9 10 11 12 13 14 15 16 17 18 19 20 21 22 23 24 25 26 27 28 29 30 31 32
277
FTUS43 KLOT 232100 AAA
TAFORD
TAF AMD
KORD 232100Z 2321/2424 15009KT P6SM FEW250
     FM240200 15004KT P6SM SKC
     FM241400 21007KT P6SM SCT040 BKN250 PROB30 2414/2420 4SM TSRA
      SCT040CB=

USA.gov is the U.S. government's official web portal to all federal, state and local government web resources and services.